createdAt,value
2022-12-24T00:00:08.959Z,138.60
2022-12-24T00:00:22.305Z,134.65
2022-12-24T00:00:58.084Z,168.32
2022-12-24T00:01:10.963Z,154.82
2022-12-24T00:01:23.586Z,132.93
2022-12-24T00:01:36.635Z,109.63
2022-12-24T00:01:49.306Z,96.43
2022-12-24T00:02:03.068Z,83.00
2022-12-24T00:02:16.105Z,81.20
2022-12-24T00:02:28.928Z,90.10
2022-12-24T00:02:41.890Z,100.13
2022-12-24T00:02:54.653Z,91.82
2022-12-24T00:03:07.504Z,78.78
2022-12-24T00:03:21.279Z,72.43
2022-12-24T00:03:34.845Z,67.70
2022-12-24T00:03:47.705Z,69.78
2022-12-24T00:04:00.438Z,70.03
2022-12-24T00:04:13.059Z,67.32
2022-12-24T00:04:25.698Z,65.65
2022-12-24T00:04:39.360Z,75.88
2022-12-24T00:04:55.691Z,78.13
2022-12-24T00:05:13.808Z,67.97
2022-12-24T00:05:26.471Z,67.80
2022-12-24T00:05:39.079Z,68.85
2022-12-24T00:05:51.897Z,73.07
2022-12-24T00:06:05.216Z,76.18
2022-12-24T00:06:22.244Z,73.60
2022-12-24T00:06:37.288Z,75.10
2022-12-24T00:06:49.939Z,73.70
2022-12-24T00:07:02.580Z,70.43
2022-12-24T00:07:15.206Z,72.47
2022-12-24T00:07:27.797Z,74.50
2022-12-24T00:07:40.429Z,77.03
2022-12-24T00:07:53.225Z,80.03
2022-12-24T00:08:05.917Z,82.50
2022-12-24T00:08:18.639Z,79.85
2022-12-24T00:08:32.302Z,74.72
2022-12-24T00:08:44.957Z,69.65
2022-12-24T00:08:57.532Z,75.07
2022-12-24T00:09:10.397Z,78.70
2022-12-24T00:09:23.475Z,71.72
2022-12-24T00:09:36.073Z,69.10
2022-12-24T00:09:48.705Z,69.88
2022-12-24T00:10:01.336Z,71.68
2022-12-24T00:10:14.974Z,70.10
2022-12-24T00:10:27.612Z,67.43
2022-12-24T00:10:40.247Z,64.55
2022-12-24T00:10:53.563Z,63.35
2022-12-24T00:11:06.250Z,65.25
2022-12-24T00:11:19.594Z,65.50
2022-12-24T00:11:33.198Z,64.43
2022-12-24T00:11:45.848Z,66.68
2022-12-24T00:11:58.720Z,67.05
2022-12-24T00:12:11.337Z,66.40
2022-12-24T00:12:24.218Z,68.85
2022-12-24T00:12:37.171Z,69.28
2022-12-24T00:12:50.814Z,65.47
2022-12-24T00:13:03.450Z,64.50
2022-12-24T00:13:16.058Z,68.50
2022-12-24T00:13:28.796Z,70.07
2022-12-24T00:13:41.440Z,71.72
2022-12-24T00:13:54.018Z,69.95
2022-12-24T00:14:06.945Z,67.30
2022-12-24T00:14:20.731Z,66.07
2022-12-24T00:14:33.437Z,62.83
2022-12-24T00:14:46.027Z,61.78
2022-12-24T00:14:58.717Z,60.17
2022-12-24T00:15:11.654Z,61.40
2022-12-24T00:15:24.238Z,62.55
2022-12-24T00:15:36.853Z,61.47
2022-12-24T00:15:49.482Z,59.33
2022-12-24T00:16:03.140Z,60.40
2022-12-24T00:16:16.284Z,60.80
2022-12-24T00:16:29.127Z,61.17
2022-12-24T00:16:41.961Z,62.85
2022-12-24T00:16:54.657Z,63.65
2022-12-24T00:17:07.435Z,65.13
2022-12-24T00:17:20.087Z,69.68
2022-12-24T00:17:33.966Z,75.00
2022-12-24T00:17:46.609Z,87.35
2022-12-24T00:17:59.214Z,91.80
2022-12-24T00:18:11.834Z,85.90
2022-12-24T00:18:24.494Z,89.57
2022-12-24T00:18:43.326Z,89.68
2022-12-24T00:18:58.016Z,79.05
2022-12-24T00:19:11.637Z,73.47
2022-12-24T00:19:24.292Z,85.32
2022-12-24T00:19:36.939Z,102.88
2022-12-24T00:19:49.602Z,113.65
2022-12-24T00:20:02.499Z,104.30
2022-12-24T00:20:15.095Z,84.57
2022-12-24T00:20:27.727Z,77.30
2022-12-24T00:20:40.438Z,82.50
2022-12-24T00:20:53.147Z,79.88
2022-12-24T00:21:07.187Z,78.43
2022-12-24T00:21:19.794Z,85.45
2022-12-24T00:21:32.434Z,81.22
2022-12-24T00:21:46.488Z,79.70
2022-12-24T00:21:59.113Z,80.78
2022-12-24T00:22:11.783Z,82.45
2022-12-24T00:22:25.621Z,79.10
2022-12-24T00:22:38.243Z,74.97
2022-12-24T00:22:51.249Z,78.45
2022-12-24T00:23:03.943Z,82.28
2022-12-24T00:23:17.294Z,78.55
2022-12-24T00:23:30.172Z,74.45
2022-12-24T00:23:44.203Z,72.05
2022-12-24T00:23:56.895Z,66.78
2022-12-24T00:24:09.567Z,63.33
2022-12-24T00:24:22.139Z,65.22
2022-12-24T00:24:34.921Z,64.55
2022-12-24T00:24:47.738Z,67.15
2022-12-24T00:25:00.381Z,65.63
2022-12-24T00:25:12.976Z,65.35
2022-12-24T00:25:26.581Z,68.00
2022-12-24T00:25:39.187Z,67.97
2022-12-24T00:25:51.798Z,61.60
2022-12-24T00:26:04.615Z,58.13
2022-12-24T00:26:17.193Z,58.60
2022-12-24T00:26:30.031Z,61.35
2022-12-24T00:26:43.683Z,61.05
2022-12-24T00:26:56.313Z,59.95
2022-12-24T00:27:09.217Z,64.30
2022-12-24T00:27:21.815Z,62.70
2022-12-24T00:27:34.410Z,60.65
2022-12-24T00:27:46.999Z,60.08
2022-12-24T00:27:59.583Z,61.22
2022-12-24T00:28:14.215Z,64.25
2022-12-24T00:28:26.794Z,68.43
2022-12-24T00:28:39.461Z,68.00
2022-12-24T00:28:52.059Z,67.55
2022-12-24T00:29:04.717Z,63.28
2022-12-24T00:29:17.323Z,60.60
2022-12-24T00:29:29.939Z,62.50
2022-12-24T00:29:43.551Z,63.83
2022-12-24T00:29:56.147Z,66.07
2022-12-24T00:30:09.813Z,65.85
2022-12-24T00:30:22.413Z,60.50
2022-12-24T00:30:35.101Z,59.97
2022-12-24T00:30:48.254Z,61.83
2022-12-24T00:31:00.928Z,70.10
2022-12-24T00:31:17.794Z,76.15
2022-12-24T00:31:30.649Z,74.25
2022-12-24T00:31:43.642Z,70.47
2022-12-24T00:31:56.214Z,70.32
2022-12-24T00:32:10.339Z,71.15
2022-12-24T00:32:23.036Z,69.45
2022-12-24T00:32:35.633Z,66.60
2022-12-24T00:32:48.249Z,64.53
2022-12-24T00:33:01.859Z,64.32
2022-12-24T00:33:18.166Z,64.55
2022-12-24T00:33:33.470Z,66.07
2022-12-24T00:33:46.731Z,64.50
2022-12-24T00:33:59.338Z,61.35
2022-12-24T00:34:11.918Z,61.45
2022-12-24T00:34:24.949Z,62.47
2022-12-24T00:34:37.734Z,59.63
2022-12-24T00:34:53.791Z,57.40
2022-12-24T00:35:07.467Z,59.67
2022-12-24T00:35:20.153Z,62.75
2022-12-24T00:35:34.144Z,61.83
2022-12-24T00:35:50.882Z,59.60
2022-12-24T00:36:03.702Z,58.40
2022-12-24T00:36:17.646Z,57.85
2022-12-24T00:36:31.286Z,60.63
2022-12-24T00:36:43.939Z,59.92
2022-12-24T00:36:57.900Z,57.75
2022-12-24T00:37:10.482Z,58.80
2022-12-24T00:37:23.122Z,59.20
2022-12-24T00:37:35.718Z,57.30
2022-12-24T00:37:48.562Z,58.03
2022-12-24T00:38:03.895Z,57.58
2022-12-24T00:38:16.591Z,60.10
2022-12-24T00:38:29.242Z,60.47
2022-12-24T00:38:41.933Z,57.88
2022-12-24T00:38:54.523Z,57.20
2022-12-24T00:39:07.172Z,57.85
2022-12-24T00:39:19.768Z,58.00
2022-12-24T00:39:33.519Z,56.25
2022-12-24T00:39:46.325Z,54.58
2022-12-24T00:39:58.915Z,55.03
2022-12-24T00:40:11.882Z,55.65
2022-12-24T00:40:24.769Z,56.22
2022-12-24T00:40:37.420Z,55.25
2022-12-24T00:40:50.031Z,52.63
2022-12-24T00:41:04.464Z,53.85
2022-12-24T00:41:29.218Z,56.15
2022-12-24T00:41:42.520Z,61.38
2022-12-24T00:41:55.196Z,62.88
2022-12-24T00:42:07.841Z,63.83
2022-12-24T00:42:20.918Z,63.00
2022-12-24T00:42:33.513Z,66.72
2022-12-24T00:42:47.173Z,64.63
2022-12-24T00:42:59.958Z,58.35
2022-12-24T00:43:12.595Z,56.45
2022-12-24T00:43:25.226Z,63.60
2022-12-24T00:43:37.789Z,61.90
2022-12-24T00:43:51.364Z,58.17
2022-12-24T00:44:06.163Z,64.93
2022-12-24T00:44:19.777Z,74.22
2022-12-24T00:44:32.353Z,75.50
2022-12-24T00:44:45.206Z,70.45
2022-12-24T00:44:57.802Z,65.40
2022-12-24T00:45:11.950Z,64.55
2022-12-24T00:45:24.873Z,65.05
2022-12-24T00:45:37.529Z,61.33
2022-12-24T00:45:51.161Z,60.63
2022-12-24T00:46:03.933Z,60.83
2022-12-24T00:46:16.662Z,60.25
2022-12-24T00:46:31.406Z,60.15
2022-12-24T00:46:44.161Z,60.28
2022-12-24T00:46:56.909Z,63.78
2022-12-24T00:47:12.117Z,64.22
2022-12-24T00:47:25.971Z,61.95
2022-12-24T00:47:38.608Z,61.80
2022-12-24T00:47:51.179Z,63.72
2022-12-24T00:48:04.017Z,63.63
2022-12-24T00:48:16.610Z,63.00
2022-12-24T00:48:29.213Z,63.50
2022-12-24T00:48:41.819Z,61.72
2022-12-24T00:48:55.670Z,59.78
2022-12-24T00:49:09.783Z,60.13
2022-12-24T00:49:23.229Z,63.60
2022-12-24T00:49:35.843Z,63.60
2022-12-24T00:49:48.561Z,63.47
2022-12-24T00:50:01.970Z,62.10
2022-12-24T00:50:15.083Z,62.53
2022-12-24T00:50:27.670Z,64.15
2022-12-24T00:50:41.345Z,64.82
2022-12-24T00:50:54.061Z,60.55
2022-12-24T00:51:06.728Z,58.20
2022-12-24T00:51:20.850Z,56.22
2022-12-24T00:51:33.953Z,57.00
2022-12-24T00:51:46.631Z,58.10
2022-12-24T00:52:00.544Z,56.50
2022-12-24T00:52:13.199Z,54.30
2022-12-24T00:52:26.784Z,52.10
2022-12-24T00:52:39.384Z,52.75
2022-12-24T00:52:51.963Z,54.45
2022-12-24T00:53:05.663Z,54.30
2022-12-24T00:53:18.924Z,53.05
2022-12-24T00:53:31.502Z,51.40
2022-12-24T00:53:44.126Z,53.40
2022-12-24T00:53:58.095Z,55.30
2022-12-24T00:54:10.823Z,54.13
2022-12-24T00:54:23.437Z,51.72
2022-12-24T00:54:36.028Z,53.28
2022-12-24T00:54:48.617Z,55.33
2022-12-24T00:55:01.391Z,56.63
2022-12-24T00:55:14.040Z,55.53
2022-12-24T00:55:27.832Z,55.45
2022-12-24T00:55:40.545Z,55.65
2022-12-24T00:55:53.227Z,55.83
2022-12-24T00:56:06.914Z,55.08
2022-12-24T00:56:20.234Z,57.92
2022-12-24T00:56:33.442Z,62.25
2022-12-24T00:56:46.042Z,62.28
2022-12-24T00:56:58.715Z,60.30
2022-12-24T00:57:12.297Z,60.05
2022-12-24T00:57:24.967Z,56.72
2022-12-24T00:57:38.326Z,57.35
2022-12-24T00:57:50.934Z,59.80
2022-12-24T00:58:03.572Z,60.65
2022-12-24T00:58:16.455Z,62.63
2022-12-24T00:58:29.086Z,71.22
2022-12-24T00:58:41.793Z,74.82
2022-12-24T00:58:55.800Z,74.63
2022-12-24T00:59:08.438Z,71.35
2022-12-24T00:59:21.062Z,64.68
2022-12-24T00:59:33.698Z,59.80
2022-12-24T00:59:46.306Z,58.53
2022-12-24T00:59:58.919Z,62.80
2022-12-24T01:00:12.051Z,62.45
2022-12-24T01:00:24.690Z,64.53
2022-12-24T01:00:38.275Z,60.97
2022-12-24T01:00:51.075Z,63.67
2022-12-24T01:01:04.593Z,62.17
2022-12-24T01:01:18.765Z,60.92
2022-12-24T01:01:31.601Z,66.18
2022-12-24T01:01:44.349Z,69.22
2022-12-24T01:01:57.179Z,64.60
2022-12-24T01:02:10.097Z,66.00
2022-12-24T01:02:24.462Z,70.85
2022-12-24T01:02:37.723Z,72.93
2022-12-24T01:02:50.770Z,70.90
2022-12-24T01:03:03.662Z,71.88
2022-12-24T01:03:16.404Z,74.63
2022-12-24T01:03:34.926Z,69.82
2022-12-24T01:03:48.064Z,61.08
2022-12-24T01:04:15.566Z,62.60
2022-12-24T01:04:46.399Z,55.20
2022-12-24T01:05:11.864Z,61.72
2022-12-24T01:05:24.562Z,63.03
2022-12-24T01:05:37.145Z,62.78
2022-12-24T01:05:51.681Z,60.17
2022-12-24T01:06:05.854Z,61.03
2022-12-24T01:06:20.863Z,62.30
2022-12-24T01:06:33.468Z,58.97
2022-12-24T01:06:46.133Z,56.35
2022-12-24T01:07:00.102Z,55.67
2022-12-24T01:07:12.658Z,53.72
2022-12-24T01:07:25.654Z,54.67
2022-12-24T01:07:40.938Z,54.08
2022-12-24T01:07:54.587Z,53.70
2022-12-24T01:08:07.319Z,53.28
2022-12-24T01:08:19.917Z,57.42
2022-12-24T01:08:32.972Z,58.17
2022-12-24T01:08:45.913Z,59.80
2022-12-24T01:08:58.493Z,60.08
2022-12-24T01:09:11.318Z,60.75
2022-12-24T01:09:24.043Z,59.97
2022-12-24T01:09:37.950Z,58.72
2022-12-24T01:09:50.557Z,57.08
2022-12-24T01:10:03.405Z,57.30
2022-12-24T01:10:19.400Z,55.20
2022-12-24T01:10:32.068Z,57.28
2022-12-24T01:10:44.678Z,58.17
2022-12-24T01:10:57.450Z,57.40
2022-12-24T01:11:12.918Z,57.45
2022-12-24T01:11:25.589Z,58.47
2022-12-24T01:11:38.241Z,59.97
2022-12-24T01:11:50.858Z,59.42
2022-12-24T01:12:04.078Z,57.28
2022-12-24T01:12:16.723Z,56.30
2022-12-24T01:12:29.368Z,56.75
2022-12-24T01:12:44.359Z,58.55
2022-12-24T01:12:56.926Z,60.95
2022-12-24T01:13:09.547Z,60.63
2022-12-24T01:13:22.179Z,57.28
2022-12-24T01:13:34.977Z,56.33
2022-12-24T01:13:47.589Z,54.90
2022-12-24T01:14:00.175Z,56.70
2022-12-24T01:14:12.834Z,56.80
2022-12-24T01:14:26.394Z,56.47
2022-12-24T01:14:39.157Z,55.25
2022-12-24T01:14:51.871Z,55.92
2022-12-24T01:15:05.716Z,57.60
2022-12-24T01:15:18.478Z,60.22
2022-12-24T01:15:32.321Z,57.63
2022-12-24T01:15:45.041Z,54.53
2022-12-24T01:15:57.961Z,55.25
2022-12-24T01:16:15.687Z,55.22
2022-12-24T01:16:28.565Z,54.63
2022-12-24T01:16:41.491Z,54.67
2022-12-24T01:16:54.135Z,51.42
2022-12-24T01:17:06.827Z,50.10
2022-12-24T01:17:20.571Z,50.85
2022-12-24T01:17:34.119Z,51.63
2022-12-24T01:17:46.673Z,50.65
2022-12-24T01:17:59.496Z,51.22
2022-12-24T01:18:12.100Z,48.30
2022-12-24T01:18:25.363Z,48.08
2022-12-24T01:18:37.990Z,48.72
2022-12-24T01:18:51.550Z,50.42
2022-12-24T01:19:04.238Z,50.35
2022-12-24T01:19:16.892Z,51.85
2022-12-24T01:19:29.550Z,51.45
2022-12-24T01:19:42.233Z,50.45
2022-12-24T01:19:54.831Z,49.13
2022-12-24T01:20:12.222Z,50.28
2022-12-24T01:20:27.083Z,49.25
2022-12-24T01:20:39.658Z,47.15
2022-12-24T01:20:58.291Z,47.70
2022-12-24T01:21:11.334Z,46.85
2022-12-24T01:21:23.962Z,48.00
2022-12-24T01:21:36.589Z,48.03
2022-12-24T01:21:50.163Z,46.85
2022-12-24T01:22:04.263Z,45.58
2022-12-24T01:22:17.140Z,46.33
2022-12-24T01:22:29.805Z,47.60
2022-12-24T01:22:42.493Z,47.40
2022-12-24T01:22:55.494Z,46.78
2022-12-24T01:23:08.241Z,46.90
2022-12-24T01:23:20.838Z,46.22
2022-12-24T01:23:34.480Z,46.15
2022-12-24T01:23:47.149Z,47.15
2022-12-24T01:23:59.819Z,47.42
2022-12-24T01:24:15.359Z,46.67
2022-12-24T01:24:28.209Z,49.22
2022-12-24T01:24:43.489Z,50.10
2022-12-24T01:24:56.169Z,49.17
2022-12-24T01:25:10.930Z,48.70
2022-12-24T01:25:23.550Z,47.88
2022-12-24T01:25:37.892Z,49.40
2022-12-24T01:25:50.506Z,52.22
2022-12-24T01:26:04.388Z,51.13
2022-12-24T01:26:17.081Z,50.15
2022-12-24T01:26:29.707Z,50.47
2022-12-24T01:26:43.455Z,50.45
2022-12-24T01:26:56.071Z,48.45
2022-12-24T01:27:08.908Z,49.83
2022-12-24T01:27:21.561Z,51.45
2022-12-24T01:27:34.240Z,51.70
2022-12-24T01:27:47.838Z,51.38
2022-12-24T01:28:00.477Z,51.60
2022-12-24T01:28:13.055Z,51.53
2022-12-24T01:28:25.665Z,49.58
2022-12-24T01:28:38.616Z,50.80
2022-12-24T01:28:51.235Z,55.47
2022-12-24T01:29:03.886Z,55.30
2022-12-24T01:29:17.739Z,55.83
2022-12-24T01:29:30.494Z,58.63
2022-12-24T01:29:44.121Z,54.58
2022-12-24T01:29:59.232Z,52.75
2022-12-24T01:30:14.959Z,54.22
2022-12-24T01:30:27.591Z,56.20
2022-12-24T01:30:41.121Z,56.55
2022-12-24T01:30:53.995Z,55.38
2022-12-24T01:31:11.353Z,54.92
2022-12-24T01:31:25.101Z,53.95
2022-12-24T01:31:37.819Z,52.42
2022-12-24T01:31:50.449Z,52.95
2022-12-24T01:32:03.268Z,52.67
2022-12-24T01:32:15.999Z,52.92
2022-12-24T01:32:28.575Z,54.35
2022-12-24T01:32:42.168Z,54.83
2022-12-24T01:32:54.739Z,54.47
2022-12-24T01:33:07.466Z,55.53
2022-12-24T01:33:20.202Z,55.42
2022-12-24T01:33:32.805Z,53.30
2022-12-24T01:33:46.260Z,54.72
2022-12-24T01:33:58.854Z,54.94
2022-12-24T01:34:12.595Z,55.67
2022-12-24T01:34:25.311Z,56.72
2022-12-24T01:34:38.208Z,54.50
2022-12-24T01:34:50.780Z,55.55
2022-12-24T01:35:03.684Z,54.45
2022-12-24T01:35:16.418Z,51.38
2022-12-24T01:35:29.111Z,51.83
2022-12-24T01:35:43.440Z,52.53
2022-12-24T01:35:56.139Z,55.45
2022-12-24T01:36:09.936Z,57.13
2022-12-24T01:36:22.576Z,57.33
2022-12-24T01:36:36.533Z,54.70
2022-12-24T01:36:49.110Z,54.03
2022-12-24T01:37:01.756Z,54.22
2022-12-24T01:37:15.709Z,53.33
2022-12-24T01:37:29.321Z,51.15
2022-12-24T01:37:42.976Z,53.50
2022-12-24T01:37:55.594Z,57.00
2022-12-24T01:38:08.203Z,55.08
2022-12-24T01:38:20.786Z,54.70
2022-12-24T01:38:33.490Z,52.72
2022-12-24T01:38:46.194Z,51.97
2022-12-24T01:38:58.895Z,51.53
2022-12-24T01:39:12.821Z,51.05
2022-12-24T01:39:25.460Z,49.47
2022-12-24T01:39:38.074Z,48.97
2022-12-24T01:39:50.671Z,49.13
2022-12-24T01:40:22.035Z,50.20
2022-12-24T01:40:52.866Z,54.15
2022-12-24T01:41:24.263Z,58.97
2022-12-24T01:41:55.008Z,60.53
2022-12-24T01:42:37.146Z,52.28
2022-12-24T01:43:04.849Z,54.97
2022-12-24T01:43:25.067Z,55.63
2022-12-24T01:43:37.749Z,56.63
2022-12-24T01:43:50.438Z,57.60
2022-12-24T01:44:22.823Z,58.10
2022-12-24T01:44:40.142Z,53.90
2022-12-24T01:44:54.538Z,49.03
2022-12-24T01:45:43.148Z,49.65
2022-12-24T01:45:58.873Z,48.50
2022-12-24T01:46:16.526Z,49.53
2022-12-24T01:46:32.382Z,47.10
2022-12-24T01:46:45.715Z,47.53
2022-12-24T01:47:04.100Z,48.95
2022-12-24T01:47:21.514Z,47.65
2022-12-24T01:47:34.098Z,47.15
2022-12-24T01:47:47.513Z,47.83
2022-12-24T01:48:00.179Z,51.10
2022-12-24T01:48:22.443Z,50.17
2022-12-24T01:48:39.337Z,50.50
2022-12-24T01:48:56.053Z,51.42
2022-12-24T01:49:11.711Z,50.40
2022-12-24T01:49:24.420Z,49.78
2022-12-24T01:49:40.505Z,51.30
2022-12-24T01:49:56.563Z,53.00
2022-12-24T01:50:17.095Z,52.85
2022-12-24T01:50:30.035Z,48.55
2022-12-24T01:50:43.341Z,49.30
2022-12-24T01:51:04.283Z,51.53
2022-12-24T01:51:24.149Z,49.15
2022-12-24T01:51:39.329Z,50.75
2022-12-24T01:51:56.110Z,49.35
2022-12-24T01:52:12.985Z,50.95
2022-12-24T01:52:30.016Z,51.97
2022-12-24T01:52:43.062Z,55.85
2022-12-24T01:52:56.801Z,57.10
2022-12-24T01:53:11.017Z,58.75
2022-12-24T01:53:25.307Z,58.40
2022-12-24T01:53:39.851Z,55.00
2022-12-24T01:53:57.757Z,54.90
2022-12-24T01:54:13.751Z,52.45
2022-12-24T01:54:32.120Z,51.55
2022-12-24T01:54:49.058Z,54.53
2022-12-24T01:55:05.202Z,54.78
2022-12-24T01:55:19.224Z,57.13
2022-12-24T01:55:32.039Z,59.35
2022-12-24T01:55:46.538Z,59.97
2022-12-24T01:55:59.505Z,59.42
2022-12-24T01:56:13.478Z,55.33
2022-12-24T01:56:29.040Z,55.25
2022-12-24T01:56:48.189Z,56.72
2022-12-24T01:57:05.058Z,52.35
2022-12-24T01:57:23.560Z,52.45
2022-12-24T01:57:40.254Z,55.38
2022-12-24T01:57:56.873Z,55.35
2022-12-24T01:58:11.359Z,55.30
2022-12-24T01:58:26.789Z,54.00
2022-12-24T01:58:43.191Z,53.55
2022-12-24T01:59:00.694Z,53.17
2022-12-24T01:59:16.405Z,54.65
2022-12-24T01:59:29.835Z,53.00
2022-12-24T01:59:46.392Z,51.63
2022-12-24T02:00:03.840Z,52.55
2022-12-24T02:00:16.990Z,52.25
2022-12-24T02:00:29.712Z,51.70
2022-12-24T02:00:42.454Z,54.85
2022-12-24T02:00:55.169Z,56.35
2022-12-24T02:01:08.176Z,55.58
2022-12-24T02:01:21.922Z,52.42
2022-12-24T02:01:34.939Z,54.28
2022-12-24T02:01:50.056Z,55.05
2022-12-24T02:02:03.483Z,54.53
2022-12-24T02:02:17.592Z,54.20
2022-12-24T02:02:33.469Z,52.90
2022-12-24T02:02:48.366Z,51.15
2022-12-24T02:03:01.329Z,49.65
2022-12-24T02:03:15.155Z,46.78
2022-12-24T02:03:28.035Z,46.75
2022-12-24T02:03:40.823Z,47.45
2022-12-24T02:03:53.675Z,47.83
2022-12-24T02:04:12.312Z,49.10
2022-12-24T02:04:34.904Z,51.08
2022-12-24T02:04:53.996Z,45.90
2022-12-24T02:05:11.850Z,42.78
2022-12-24T02:05:29.930Z,45.45
2022-12-24T02:05:47.882Z,48.35
2022-12-24T02:06:00.939Z,46.35
2022-12-24T02:06:15.648Z,45.78
2022-12-24T02:06:28.235Z,44.75
2022-12-24T02:06:41.818Z,43.65
2022-12-24T02:06:54.528Z,44.20
2022-12-24T02:07:07.545Z,46.45
2022-12-24T02:07:20.193Z,46.10
2022-12-24T02:07:35.041Z,45.85
2022-12-24T02:07:47.969Z,47.10
2022-12-24T02:08:02.631Z,47.95
2022-12-24T02:08:15.998Z,47.47
2022-12-24T02:08:40.019Z,48.40
2022-12-24T02:08:52.794Z,48.60
2022-12-24T02:09:07.231Z,48.05
2022-12-24T02:09:20.330Z,45.45
2022-12-24T02:09:33.999Z,45.72
2022-12-24T02:09:49.883Z,44.80
2022-12-24T02:10:04.443Z,43.10
2022-12-24T02:10:18.553Z,46.58
2022-12-24T02:10:31.456Z,48.28
2022-12-24T02:10:44.480Z,48.45
2022-12-24T02:10:57.066Z,47.60
2022-12-24T02:11:14.133Z,45.85
2022-12-24T02:11:26.752Z,43.10
2022-12-24T02:11:41.375Z,42.85
2022-12-24T02:11:55.242Z,44.28
2022-12-24T02:12:08.818Z,44.47
2022-12-24T02:12:21.561Z,44.45
2022-12-24T02:12:36.237Z,46.47
2022-12-24T02:12:50.332Z,47.05
2022-12-24T02:13:04.193Z,47.33
2022-12-24T02:13:20.694Z,47.40
2022-12-24T02:13:33.284Z,44.47
2022-12-24T02:13:51.001Z,42.78
2022-12-24T02:14:03.828Z,43.88
2022-12-24T02:14:17.163Z,43.63
2022-12-24T02:14:32.347Z,42.30
2022-12-24T02:14:45.203Z,43.22
2022-12-24T02:14:58.044Z,42.38
2022-12-24T02:15:13.623Z,41.97
2022-12-24T02:15:30.392Z,43.05
2022-12-24T02:15:55.887Z,46.75
2022-12-24T02:16:17.148Z,43.25
2022-12-24T02:16:40.355Z,42.30
2022-12-24T02:17:01.575Z,43.17
2022-12-24T02:17:22.097Z,42.55
2022-12-24T02:17:42.879Z,48.67
2022-12-24T02:18:06.391Z,50.92
2022-12-24T02:18:26.939Z,43.30
2022-12-24T02:18:45.658Z,46.72
2022-12-24T02:19:12.624Z,43.53
2022-12-24T02:19:55.696Z,39.92
2022-12-24T02:20:38.796Z,41.17
2022-12-24T02:21:20.105Z,45.40
2022-12-24T02:21:48.609Z,42.42
2022-12-24T02:22:06.939Z,42.30
2022-12-24T02:22:33.180Z,39.88
2022-12-24T02:23:17.912Z,39.35
2022-12-24T02:23:53.426Z,40.40
2022-12-24T02:24:42.592Z,39.92
2022-12-24T02:25:11.460Z,40.58
2022-12-24T02:25:37.579Z,39.63
2022-12-24T02:26:11.404Z,38.88
2022-12-24T02:26:42.995Z,41.30
2022-12-24T02:27:32.630Z,35.25
2022-12-24T02:27:56.907Z,35.20
2022-12-24T02:28:23.481Z,35.30
2022-12-24T02:28:55.819Z,36.15
2022-12-24T02:29:28.627Z,33.95
2022-12-24T02:30:11.548Z,31.30
2022-12-24T02:30:24.940Z,33.25
2022-12-24T02:30:43.679Z,32.33
2022-12-24T02:31:02.900Z,31.52
2022-12-24T02:31:21.909Z,32.50
2022-12-24T02:31:39.615Z,31.58
2022-12-24T02:31:59.165Z,32.88
2022-12-24T02:32:15.351Z,32.72
2022-12-24T02:32:35.572Z,32.53
2022-12-24T02:33:17.297Z,32.70
2022-12-24T02:33:35.908Z,32.72
2022-12-24T02:33:53.357Z,31.05
2022-12-24T02:34:11.196Z,32.10
2022-12-24T02:34:30.289Z,32.30
2022-12-24T02:34:48.358Z,31.73
2022-12-24T02:35:06.295Z,30.38
2022-12-24T02:35:24.475Z,30.25
2022-12-24T02:35:44.833Z,31.17
2022-12-24T02:36:05.148Z,30.73
2022-12-24T02:36:23.547Z,29.35
2022-12-24T02:36:43.773Z,29.25
2022-12-24T02:36:59.734Z,30.30
2022-12-24T02:37:17.638Z,29.15
2022-12-24T02:37:34.680Z,28.60
2022-12-24T02:37:52.603Z,27.45
2022-12-24T02:38:12.100Z,27.83
2022-12-24T02:38:30.038Z,27.70
2022-12-24T02:38:49.316Z,27.17
2022-12-24T02:39:05.062Z,28.25
2022-12-24T02:39:22.696Z,30.00
2022-12-24T02:39:41.768Z,28.10
2022-12-24T02:39:59.993Z,30.05
2022-12-24T02:40:19.348Z,29.73
2022-12-24T02:40:36.870Z,28.80
2022-12-24T02:40:52.319Z,28.80
2022-12-24T02:41:09.439Z,26.40
2022-12-24T02:41:26.131Z,26.95
2022-12-24T02:41:58.224Z,28.33
2022-12-24T02:42:13.927Z,26.27
2022-12-24T02:42:31.444Z,28.27
2022-12-24T02:42:48.603Z,30.42
2022-12-24T02:43:05.492Z,29.75
2022-12-24T02:43:23.137Z,28.13
2022-12-24T02:43:39.716Z,27.65
2022-12-24T02:43:57.611Z,27.80
2022-12-24T02:44:11.404Z,27.55
2022-12-24T02:44:28.926Z,26.27
2022-12-24T02:44:47.762Z,25.98
2022-12-24T02:45:04.451Z,26.33
2022-12-24T02:45:22.290Z,26.65
2022-12-24T02:45:36.653Z,24.75
2022-12-24T02:45:59.528Z,24.40
2022-12-24T02:46:16.321Z,27.85
2022-12-24T02:46:32.850Z,28.75
2022-12-24T02:46:46.669Z,27.65
2022-12-24T02:47:01.131Z,27.50
2022-12-24T02:47:15.998Z,28.38
2022-12-24T02:47:33.689Z,27.67
2022-12-24T02:47:48.948Z,26.70
2022-12-24T02:48:02.362Z,25.48
2022-12-24T02:48:17.825Z,26.55
2022-12-24T02:48:31.994Z,27.50
2022-12-24T02:48:48.619Z,25.85
2022-12-24T02:49:01.440Z,25.65
2022-12-24T02:49:14.484Z,27.77
2022-12-24T02:49:27.123Z,28.20
2022-12-24T02:49:43.615Z,27.48
2022-12-24T02:49:56.231Z,27.58
2022-12-24T02:50:10.535Z,28.77
2022-12-24T02:50:25.314Z,28.15
2022-12-24T02:50:37.904Z,26.20
2022-12-24T02:50:59.032Z,25.75
2022-12-24T02:51:12.395Z,26.25
2022-12-24T02:51:25.332Z,27.15
2022-12-24T02:51:37.928Z,27.30
2022-12-24T02:51:50.561Z,27.73
2022-12-24T02:52:06.373Z,28.35
2022-12-24T02:52:29.603Z,26.38
2022-12-24T02:52:45.335Z,24.95
2022-12-24T02:52:57.957Z,26.45
2022-12-24T02:53:10.899Z,27.25
2022-12-24T02:53:23.655Z,26.38
2022-12-24T02:53:37.107Z,27.27
2022-12-24T02:53:49.730Z,27.77
2022-12-24T02:54:02.445Z,30.98
2022-12-24T02:54:15.619Z,29.35
2022-12-24T02:54:29.844Z,26.38
2022-12-24T02:54:42.729Z,26.30
2022-12-24T02:54:55.667Z,26.25
2022-12-24T02:55:12.847Z,27.42
2022-12-24T02:55:35.113Z,28.45
2022-12-24T02:56:00.715Z,28.52
2022-12-24T02:56:31.651Z,24.60
2022-12-24T02:56:58.177Z,26.38
2022-12-24T02:57:23.334Z,27.40
2022-12-24T02:57:47.291Z,26.08
2022-12-24T02:58:20.022Z,27.08
2022-12-24T02:58:43.675Z,28.23
2022-12-24T02:59:23.626Z,26.25
2022-12-24T02:59:56.742Z,26.67
2022-12-24T03:00:13.545Z,27.75
2022-12-24T03:00:35.138Z,27.60
2022-12-24T03:01:16.233Z,29.13
2022-12-24T03:01:42.857Z,30.63
2022-12-24T03:02:07.543Z,27.65
2022-12-24T03:02:30.271Z,27.52
2022-12-24T03:03:07.759Z,28.15
2022-12-24T03:03:34.919Z,27.42
2022-12-24T03:04:04.349Z,26.25
2022-12-24T03:04:39.515Z,25.45
2022-12-24T03:05:01.127Z,26.88
2022-12-24T03:05:25.294Z,28.48
2022-12-24T03:05:46.165Z,28.13
2022-12-24T03:06:08.050Z,25.33
2022-12-24T03:06:34.627Z,26.50
2022-12-24T03:06:57.782Z,26.75
2022-12-24T03:07:21.219Z,24.70
2022-12-24T03:07:38.315Z,26.00
2022-12-24T03:07:59.457Z,25.63
2022-12-24T03:08:17.955Z,24.55
2022-12-24T03:08:39.741Z,24.85
2022-12-24T03:08:57.266Z,25.75
2022-12-24T03:09:18.573Z,26.85
2022-12-24T03:09:36.945Z,24.75
2022-12-24T03:10:03.531Z,23.45
2022-12-24T03:10:24.356Z,25.38
2022-12-24T03:10:46.785Z,25.80
2022-12-24T03:11:05.240Z,28.00
2022-12-24T03:11:18.713Z,28.08
2022-12-24T03:11:32.516Z,24.75
2022-12-24T03:11:51.688Z,23.63
2022-12-24T03:12:09.382Z,23.38
2022-12-24T03:12:31.190Z,24.95
2022-12-24T03:12:48.135Z,24.60
2022-12-24T03:13:05.811Z,25.67
2022-12-24T03:13:21.543Z,26.88
2022-12-24T03:13:34.656Z,26.77
2022-12-24T03:13:50.038Z,24.98
2022-12-24T03:14:03.811Z,25.95
2022-12-24T03:14:17.210Z,26.30
2022-12-24T03:14:30.664Z,24.88
2022-12-24T03:14:44.527Z,24.23
2022-12-24T03:14:57.902Z,26.42
2022-12-24T03:15:14.829Z,26.33
2022-12-24T03:15:32.437Z,24.58
2022-12-24T03:15:46.716Z,24.95
2022-12-24T03:15:59.939Z,24.48
2022-12-24T03:16:16.510Z,23.52
2022-12-24T03:16:30.370Z,23.88
2022-12-24T03:16:44.238Z,24.75
2022-12-24T03:16:58.592Z,24.80
2022-12-24T03:17:12.107Z,25.10
2022-12-24T03:17:24.926Z,25.80
2022-12-24T03:17:39.661Z,25.88
2022-12-24T03:17:57.028Z,28.02
2022-12-24T03:18:13.628Z,26.70
2022-12-24T03:18:27.947Z,24.08
2022-12-24T03:18:44.714Z,24.05
2022-12-24T03:18:59.666Z,24.75
2022-12-24T03:19:12.899Z,24.25
2022-12-24T03:19:26.430Z,24.75
2022-12-24T03:19:40.084Z,26.35
2022-12-24T03:19:55.295Z,26.25
2022-12-24T03:20:12.255Z,25.15
2022-12-24T03:20:30.732Z,25.95